Terminal Aerodrome Forecast
Issued by NWS

Home | Current Version | Previous Version | Text Only | Print | Product List | Glossary On
Versions: 1 2 3 4 5 6 7 8 9 10 11 12 13 14 15 16 17 18 19 20 21 22 23 24
000
FTUS43 KILX 270808 AAA
TAFDEC
TAF AMD
KDEC 270808Z 2708/2806 21014KT P6SM VCTS SCT050CB BKN090
     FM271400 24012KT P6SM SCT020 BKN045
     FM271700 27013G19KT P6SM BKN050
     FM280000 31004KT P6SM SKC=

USA.gov is the U.S. government's official web portal to all federal, state and local government web resources and services.